sensor_id;sensor_type;location;lat;lon;timestamp;pressure;altitude;pressure_sealevel;temperature;humidity
8398;BME280;4236;54.504;9.588;2023-04-06T00:02:07;102014.72;;;0.86;100.00
8398;BME280;4236;54.504;9.588;2023-04-06T00:04:35;102008.91;;;0.81;100.00
8398;BME280;4236;54.504;9.588;2023-04-06T00:07:03;102008.38;;;0.76;100.00
8398;BME280;4236;54.504;9.588;2023-04-06T00:09:31;102005.13;;;0.72;100.00
8398;BME280;4236;54.504;9.588;2023-04-06T00:12:00;102001.13;;;0.67;100.00
8398;BME280;4236;54.504;9.588;2023-04-06T00:14:28;101992.00;;;0.60;100.00
8398;BME280;4236;54.504;9.588;2023-04-06T00:16:55;101990.59;;;0.54;100.00
8398;BME280;4236;54.504;9.588;2023-04-06T00:19:23;101993.53;;;0.49;100.00
8398;BME280;4236;54.504;9.588;2023-04-06T00:21:51;101993.00;;;0.44;100.00
8398;BME280;4236;54.504;9.588;2023-04-06T00:24:19;101987.84;;;0.43;100.00
8398;BME280;4236;54.504;9.588;2023-04-06T00:26:47;101994.13;;;0.40;100.00
8398;BME280;4236;54.504;9.588;2023-04-06T00:29:16;101989.19;;;0.36;100.00
8398;BME280;4236;54.504;9.588;2023-04-06T00:31:44;101985.16;;;0.30;100.00
8398;BME280;4236;54.504;9.588;2023-04-06T00:34:12;101989.69;;;0.28;100.00
8398;BME280;4236;54.504;9.588;2023-04-06T00:36:41;101986.41;;;0.25;100.00
8398;BME280;4236;54.504;9.588;2023-04-06T00:39:09;101984.00;;;0.22;100.00
8398;BME280;4236;54.504;9.588;2023-04-06T00:41:38;101983.34;;;0.18;100.00
8398;BME280;4236;54.504;9.588;2023-04-06T00:44:06;101980.00;;;0.16;100.00
8398;BME280;4236;54.504;9.588;2023-04-06T00:46:35;101967.94;;;0.14;100.00
8398;BME280;4236;54.504;9.588;2023-04-06T00:49:03;101964.66;;;0.10;100.00
8398;BME280;4236;54.504;9.588;2023-04-06T00:51:31;101974.81;;;0.02;100.00
8398;BME280;4236;54.504;9.588;2023-04-06T00:53:59;101969.97;;;-0.04;100.00
8398;BME280;4236;54.504;9.588;2023-04-06T00:56:27;101968.47;;;-0.08;100.00
8398;BME280;4236;54.504;9.588;2023-04-06T00:58:55;101972.03;;;-0.09;100.00
8398;BME280;4236;54.504;9.588;2023-04-06T01:01:23;101967.81;;;-0.12;100.00
8398;BME280;4236;54.504;9.588;2023-04-06T01:03:53;101962.56;;;-0.12;100.00
8398;BME280;4236;54.504;9.588;2023-04-06T01:06:21;101961.09;;;-0.16;100.00
8398;BME280;4236;54.504;9.588;2023-04-06T01:08:49;101967.38;;;-0.18;100.00
8398;BME280;4236;54.504;9.588;2023-04-06T01:11:17;101954.47;;;-0.21;100.00
8398;BME280;4236;54.504;9.588;2023-04-06T01:13:45;101955.28;;;-0.21;100.00
8398;BME280;4236;54.504;9.588;2023-04-06T01:16:13;101953.81;;;-0.25;100.00
8398;BME280;4236;54.504;9.588;2023-04-06T01:18:41;101945.13;;;-0.25;100.00
8398;BME280;4236;54.504;9.588;2023-04-06T01:21:10;101948.56;;;-0.25;100.00
8398;BME280;4236;54.504;9.588;2023-04-06T01:23:43;101938.28;;;-0.28;100.00
8398;BME280;4236;54.504;9.588;2023-04-06T01:26:12;101944.66;;;-0.32;100.00
8398;BME280;4236;54.504;9.588;2023-04-06T01:28:40;101947.47;;;-0.35;100.00
8398;BME280;4236;54.504;9.588;2023-04-06T01:31:08;101941.50;;;-0.37;100.00
8398;BME280;4236;54.504;9.588;2023-04-06T01:33:36;101944.31;;;-0.40;100.00
8398;BME280;4236;54.504;9.588;2023-04-06T01:36:05;101941.69;;;-0.40;100.00
8398;BME280;4236;54.504;9.588;2023-04-06T01:38:32;101950.41;;;-0.39;100.00
8398;BME280;4236;54.504;9.588;2023-04-06T01:41:02;101953.03;;;-0.39;100.00
8398;BME280;4236;54.504;9.588;2023-04-06T01:43:29;101951.25;;;-0.39;100.00
8398;BME280;4236;54.504;9.588;2023-04-06T01:45:57;101946.94;;;-0.40;100.00
8398;BME280;4236;54.504;9.588;2023-04-06T01:48:25;101942.63;;;-0.41;100.00
8398;BME280;4236;54.504;9.588;2023-04-06T01:50:53;101941.88;;;-0.43;100.00
8398;BME280;4236;54.504;9.588;2023-04-06T01:53:21;101938.59;;;-0.46;100.00
8398;BME280;4236;54.504;9.588;2023-04-06T01:55:48;101936.09;;;-0.48;100.00
8398;BME280;4236;54.504;9.588;2023-04-06T01:58:18;101939.72;;;-0.50;100.00
8398;BME280;4236;54.504;9.588;2023-04-06T02:00:45;101936.69;;;-0.57;100.00
8398;BME280;4236;54.504;9.588;2023-04-06T02:03:13;101935.25;;;-0.63;100.00
8398;BME280;4236;54.504;9.588;2023-04-06T02:05:41;101935.56;;;-0.67;100.00
8398;BME280;4236;54.504;9.588;2023-04-06T02:08:09;101936.59;;;-0.70;100.00
8398;BME280;4236;54.504;9.588;2023-04-06T02:10:37;101936.88;;;-0.74;100.00
8398;BME280;4236;54.504;9.588;2023-04-06T02:13:04;101927.41;;;-0.77;100.00
8398;BME280;4236;54.504;9.588;2023-04-06T02:15:34;101938.94;;;-0.79;100.00
8398;BME280;4236;54.504;9.588;2023-04-06T02:18:01;101935.56;;;-0.81;100.00
8398;BME280;4236;54.504;9.588;2023-04-06T02:20:29;101934.72;;;-0.82;100.00
8398;BME280;4236;54.504;9.588;2023-04-06T02:22:58;101937.34;;;-0.82;100.00
8398;BME280;4236;54.504;9.588;2023-04-06T02:25:26;101934.44;;;-0.77;100.00
8398;BME280;4236;54.504;9.588;2023-04-06T02:27:55;101936.78;;;-0.73;100.00
8398;BME280;4236;54.504;9.588;2023-04-06T02:30:22;101926.97;;;-0.69;100.00
8398;BME280;4236;54.504;9.588;2023-04-06T02:32:51;101929.28;;;-0.65;100.00
8398;BME280;4236;54.504;9.588;2023-04-06T02:35:19;101930.00;;;-0.63;100.00
8398;BME280;4236;54.504;9.588;2023-04-06T02:37:47;101934.53;;;-0.65;100.00
8398;BME280;4236;54.504;9.588;2023-04-06T02:40:15;101926.00;;;-0.68;100.00
8398;BME280;4236;54.504;9.588;2023-04-06T02:42:42;101925.28;;;-0.70;100.00
8398;BME280;4236;54.504;9.588;2023-04-06T02:45:10;101922.09;;;-0.75;100.00
8398;BME280;4236;54.504;9.588;2023-04-06T02:47:38;101916.22;;;-0.79;100.00
8398;BME280;4236;54.504;9.588;2023-04-06T02:50:08;101926.13;;;-0.84;100.00
8398;BME280;4236;54.504;9.588;2023-04-06T02:52:36;101928.75;;;-0.84;100.00
8398;BME280;4236;54.504;9.588;2023-04-06T02:55:05;101930.59;;;-0.86;100.00
8398;BME280;4236;54.504;9.588;2023-04-06T02:57:34;101923.91;;;-0.90;100.00
8398;BME280;4236;54.504;9.588;2023-04-06T03:00:02;101928.38;;;-0.92;100.00
8398;BME280;4236;54.504;9.588;2023-04-06T03:02:30;101925.75;;;-0.92;100.00
8398;BME280;4236;54.504;9.588;2023-04-06T03:04:58;101922.28;;;-0.92;100.00
8398;BME280;4236;54.504;9.588;2023-04-06T03:07:27;101923.13;;;-0.92;100.00
8398;BME280;4236;54.504;9.588;2023-04-06T03:09:55;101921.53;;;-0.94;100.00
8398;BME280;4236;54.504;9.588;2023-04-06T03:12:22;101922.56;;;-0.97;100.00
8398;BME280;4236;54.504;9.588;2023-04-06T03:14:50;101919.22;;;-0.99;100.00
8398;BME280;4236;54.504;9.588;2023-04-06T03:17:18;101921.91;;;-1.00;100.00
8398;BME280;4236;54.504;9.588;2023-04-06T03:19:46;101916.88;;;-1.03;100.00
8398;BME280;4236;54.504;9.588;2023-04-06T03:22:13;101920.53;;;-1.06;100.00
8398;BME280;4236;54.504;9.588;2023-04-06T03:24:43;101919.84;;;-1.09;100.00
8398;BME280;4236;54.504;9.588;2023-04-06T03:27:11;101918.09;;;-1.09;100.00
8398;BME280;4236;54.504;9.588;2023-04-06T03:29:38;101923.50;;;-1.12;100.00
8398;BME280;4236;54.504;9.588;2023-04-06T03:32:06;101920.16;;;-1.14;100.00
8398;BME280;4236;54.504;9.588;2023-04-06T03:34:36;101921.25;;;-1.18;100.00
8398;BME280;4236;54.504;9.588;2023-04-06T03:37:04;101924.00;;;-1.20;100.00
8398;BME280;4236;54.504;9.588;2023-04-06T03:39:36;101923.31;;;-1.23;100.00
8398;BME280;4236;54.504;9.588;2023-04-06T03:42:05;101923.59;;;-1.28;100.00
8398;BME280;4236;54.504;9.588;2023-04-06T03:44:33;101920.13;;;-1.28;100.00
8398;BME280;4236;54.504;9.588;2023-04-06T03:47:01;101926.38;;;-1.31;100.00
8398;BME280;4236;54.504;9.588;2023-04-06T03:49:29;101925.66;;;-1.33;100.00
8398;BME280;4236;54.504;9.588;2023-04-06T03:51:57;101929.97;;;-1.32;100.00
8398;BME280;4236;54.504;9.588;2023-04-06T03:54:24;101924.63;;;-1.30;100.00
8398;BME280;4236;54.504;9.588;2023-04-06T03:56:52;101930.69;;;-1.30;100.00
8398;BME280;4236;54.504;9.588;2023-04-06T03:59:21;101928.94;;;-1.29;100.00
8398;BME280;4236;54.504;9.588;2023-04-06T04:01:49;101928.63;;;-1.25;100.00
8398;BME280;4236;54.504;9.588;2023-04-06T04:04:17;101928.56;;;-1.23;100.00
8398;BME280;4236;54.504;9.588;2023-04-06T04:06:45;101934.53;;;-1.21;100.00
8398;BME280;4236;54.504;9.588;2023-04-06T04:09:13;101937.06;;;-1.20;100.00
8398;BME280;4236;54.504;9.588;2023-04-06T04:11:40;101923.03;;;-1.19;100.00
8398;BME280;4236;54.504;9.588;2023-04-06T04:14:08;101934.28;;;-1.17;100.00
8398;BME280;4236;54.504;9.588;2023-04-06T04:16:37;101936.13;;;-1.19;100.00
8398;BME280;4236;54.504;9.588;2023-04-06T04:19:06;101937.06;;;-1.20;100.00
8398;BME280;4236;54.504;9.588;2023-04-06T04:21:42;101930.22;;;-1.22;100.00
8398;BME280;4236;54.504;9.588;2023-04-06T04:24:10;101929.47;;;-1.24;100.00
8398;BME280;4236;54.504;9.588;2023-04-06T04:26:38;101925.34;;;-1.28;100.00
8398;BME280;4236;54.504;9.588;2023-04-06T04:29:06;101934.16;;;-1.29;100.00
8398;BME280;4236;54.504;9.588;2023-04-06T04:31:35;101928.16;;;-1.31;100.00
8398;BME280;4236;54.504;9.588;2023-04-06T04:34:04;101932.66;;;-1.33;100.00
8398;BME280;4236;54.504;9.588;2023-04-06T04:36:33;101925.81;;;-1.36;100.00
8398;BME280;4236;54.504;9.588;2023-04-06T04:39:01;101925.09;;;-1.38;100.00
8398;BME280;4236;54.504;9.588;2023-04-06T04:41:29;101930.22;;;-1.36;100.00
8398;BME280;4236;54.504;9.588;2023-04-06T04:43:57;101929.38;;;-1.37;100.00
8398;BME280;4236;54.504;9.588;2023-04-06T04:46:24;101933.69;;;-1.36;100.00
8398;BME280;4236;54.504;9.588;2023-04-06T04:48:52;101929.19;;;-1.34;100.00
8398;BME280;4236;54.504;9.588;2023-04-06T04:51:21;101931.81;;;-1.34;100.00
8398;BME280;4236;54.504;9.588;2023-04-06T04:53:50;101928.16;;;-1.31;100.00
8398;BME280;4236;54.504;9.588;2023-04-06T04:56:18;101931.63;;;-1.31;100.00
8398;BME280;4236;54.504;9.588;2023-04-06T04:58:46;101930.69;;;-1.30;100.00
8398;BME280;4236;54.504;9.588;2023-04-06T05:01:14;101931.34;;;-1.26;100.00
8398;BME280;4236;54.504;9.588;2023-04-06T05:03:42;101935.47;;;-1.22;100.00
8398;BME280;4236;54.504;9.588;2023-04-06T05:06:10;101935.84;;;-1.14;100.00
8398;BME280;4236;54.504;9.588;2023-04-06T05:08:40;101931.84;;;-1.05;100.00
8398;BME280;4236;54.504;9.588;2023-04-06T05:11:08;101932.19;;;-0.97;100.00
8398;BME280;4236;54.504;9.588;2023-04-06T05:13:36;101939.50;;;-0.88;100.00
8398;BME280;4236;54.504;9.588;2023-04-06T05:16:04;101932.84;;;-0.80;100.00
8398;BME280;4236;54.504;9.588;2023-04-06T05:18:33;101926.38;;;-0.74;100.00
8398;BME280;4236;54.504;9.588;2023-04-06T05:21:01;101933.97;;;-0.70;100.00
8398;BME280;4236;54.504;9.588;2023-04-06T05:23:28;101932.63;;;-0.63;100.00
8398;BME280;4236;54.504;9.588;2023-04-06T05:25:58;101930.59;;;-0.58;100.00
8398;BME280;4236;54.504;9.588;2023-04-06T05:28:25;101934.59;;;-0.52;100.00
8398;BME280;4236;54.504;9.588;2023-04-06T05:30:53;101930.94;;;-0.49;100.00
8398;BME280;4236;54.504;9.588;2023-04-06T05:33:21;101937.50;;;-0.42;100.00
8398;BME280;4236;54.504;9.588;2023-04-06T05:35:48;101932.66;;;-0.36;100.00
8398;BME280;4236;54.504;9.588;2023-04-06T05:38:16;101934.34;;;0.58;100.00
8398;BME280;4236;54.504;9.588;2023-04-06T05:40:44;101921.09;;;1.83;100.00
8398;BME280;4236;54.504;9.588;2023-04-06T05:43:13;101928.06;;;3.10;100.00
8398;BME280;4236;54.504;9.588;2023-04-06T05:45:44;101923.03;;;3.83;100.00
8398;BME280;4236;54.504;9.588;2023-04-06T05:48:12;101919.38;;;3.96;100.00
8398;BME280;4236;54.504;9.588;2023-04-06T05:50:40;101921.59;;;3.79;100.00
8398;BME280;4236;54.504;9.588;2023-04-06T05:53:08;101922.31;;;3.81;100.00
8398;BME280;4236;54.504;9.588;2023-04-06T05:55:36;101921.63;;;4.94;100.00
8398;BME280;4236;54.504;9.588;2023-04-06T05:58:03;101915.84;;;6.18;100.00
8398;BME280;4236;54.504;9.588;2023-04-06T06:00:33;101918.09;;;7.35;100.00
8398;BME280;4236;54.504;9.588;2023-04-06T06:03:00;101918.66;;;8.36;100.00
8398;BME280;4236;54.504;9.588;2023-04-06T06:05:30;101912.56;;;9.21;100.00
8398;BME280;4236;54.504;9.588;2023-04-06T06:07:58;101906.13;;;9.97;100.00
8398;BME280;4236;54.504;9.588;2023-04-06T06:10:28;101905.38;;;10.53;100.00
8398;BME280;4236;54.504;9.588;2023-04-06T06:12:56;101909.75;;;11.09;91.12
8398;BME280;4236;54.504;9.588;2023-04-06T06:15:24;101906.00;;;11.65;78.54
8398;BME280;4236;54.504;9.588;2023-04-06T06:17:53;101901.91;;;12.31;77.43
8398;BME280;4236;54.504;9.588;2023-04-06T06:20:21;101907.94;;;12.70;70.76
8398;BME280;4236;54.504;9.588;2023-04-06T06:22:49;101913.34;;;13.14;66.04
8398;BME280;4236;54.504;9.588;2023-04-06T06:25:17;101911.56;;;13.51;62.92
8398;BME280;4236;54.504;9.588;2023-04-06T06:27:45;101905.19;;;13.88;63.23
8398;BME280;4236;54.504;9.588;2023-04-06T06:30:13;101902.66;;;14.22;61.92
8398;BME280;4236;54.504;9.588;2023-04-06T06:32:41;101904.13;;;14.46;59.86
8398;BME280;4236;54.504;9.588;2023-04-06T06:35:10;101908.38;;;14.61;57.26
8398;BME280;4236;54.504;9.588;2023-04-06T06:37:38;101900.88;;;14.78;58.88
8398;BME280;4236;54.504;9.588;2023-04-06T06:40:06;101906.00;;;15.01;56.87
8398;BME280;4236;54.504;9.588;2023-04-06T06:42:34;101902.31;;;15.08;51.55
8398;BME280;4236;54.504;9.588;2023-04-06T06:45:03;101900.66;;;15.07;51.67
8398;BME280;4236;54.504;9.588;2023-04-06T06:47:31;101901.50;;;15.08;51.13
8398;BME280;4236;54.504;9.588;2023-04-06T06:49:59;101899.66;;;15.08;51.77
8398;BME280;4236;54.504;9.588;2023-04-06T06:52:28;101905.19;;;15.41;54.11
8398;BME280;4236;54.504;9.588;2023-04-06T06:54:56;101896.44;;;15.26;49.60
8398;BME280;4236;54.504;9.588;2023-04-06T06:57:25;101896.69;;;15.37;53.26
8398;BME280;4236;54.504;9.588;2023-04-06T06:59:53;101903.94;;;15.43;51.90
8398;BME280;4236;54.504;9.588;2023-04-06T07:02:21;101899.38;;;15.37;51.77
8398;BME280;4236;54.504;9.588;2023-04-06T07:04:49;101895.38;;;15.27;50.18
8398;BME280;4236;54.504;9.588;2023-04-06T07:07:16;101895.41;;;15.33;48.40
8398;BME280;4236;54.504;9.588;2023-04-06T07:09:46;101897.03;;;14.93;46.00
8398;BME280;4236;54.504;9.588;2023-04-06T07:12:14;101886.88;;;15.17;50.71
8398;BME280;4236;54.504;9.588;2023-04-06T07:14:42;101889.69;;;15.02;50.30
8398;BME280;4236;54.504;9.588;2023-04-06T07:17:10;101895.00;;;14.95;51.06
8398;BME280;4236;54.504;9.588;2023-04-06T07:19:39;101888.03;;;14.24;47.78
8398;BME280;4236;54.504;9.588;2023-04-06T07:22:07;101902.59;;;13.58;50.20
8398;BME280;4236;54.504;9.588;2023-04-06T07:24:34;101895.72;;;13.20;50.94
8398;BME280;4236;54.504;9.588;2023-04-06T07:27:03;101898.47;;;12.45;51.41
8398;BME280;4236;54.504;9.588;2023-04-06T07:29:31;101889.28;;;12.25;54.28
8398;BME280;4236;54.504;9.588;2023-04-06T07:31:59;101900.22;;;11.93;54.88
8398;BME280;4236;54.504;9.588;2023-04-06T07:34:27;101894.06;;;11.53;54.27
8398;BME280;4236;54.504;9.588;2023-04-06T07:36:55;101896.44;;;11.01;56.44
8398;BME280;4236;54.504;9.588;2023-04-06T07:39:23;101896.19;;;10.64;57.77
8398;BME280;4236;54.504;9.588;2023-04-06T07:41:52;101901.03;;;10.44;59.47
8398;BME280;4236;54.504;9.588;2023-04-06T07:44:21;101902.88;;;10.44;60.07
8398;BME280;4236;54.504;9.588;2023-04-06T07:46:49;101895.03;;;10.34;61.08
8398;BME280;4236;54.504;9.588;2023-04-06T07:49:17;101897.88;;;10.41;60.96
8398;BME280;4236;54.504;9.588;2023-04-06T07:51:47;101896.38;;;10.38;62.31
8398;BME280;4236;54.504;9.588;2023-04-06T07:54:15;101896.03;;;10.49;61.42
8398;BME280;4236;54.504;9.588;2023-04-06T07:56:42;101896.16;;;10.80;62.37
8398;BME280;4236;54.504;9.588;2023-04-06T07:59:10;101889.97;;;10.88;61.67
8398;BME280;4236;54.504;9.588;2023-04-06T08:01:41;101889.28;;;11.02;62.74
8398;BME280;4236;54.504;9.588;2023-04-06T08:04:09;101881.34;;;11.25;61.51
8398;BME280;4236;54.504;9.588;2023-04-06T08:06:37;101886.72;;;11.17;58.63
8398;BME280;4236;54.504;9.588;2023-04-06T08:09:05;101891.69;;;11.28;59.51
8398;BME280;4236;54.504;9.588;2023-04-06T08:11:32;101880.38;;;10.63;58.84
8398;BME280;4236;54.504;9.588;2023-04-06T08:14:00;101886.03;;;10.60;59.75
8398;BME280;4236;54.504;9.588;2023-04-06T08:16:28;101878.03;;;10.51;60.62
8398;BME280;4236;54.504;9.588;2023-04-06T08:18:57;101888.16;;;10.80;60.96
8398;BME280;4236;54.504;9.588;2023-04-06T08:21:25;101888.31;;;10.87;61.43
8398;BME280;4236;54.504;9.588;2023-04-06T08:23:53;101883.97;;;10.86;59.70
8398;BME280;4236;54.504;9.588;2023-04-06T08:26:20;101886.47;;;10.79;59.45
8398;BME280;4236;54.504;9.588;2023-04-06T08:28:48;101885.47;;;10.88;60.02
8398;BME280;4236;54.504;9.588;2023-04-06T08:31:16;101887.84;;;10.67;57.93
8398;BME280;4236;54.504;9.588;2023-04-06T08:33:44;101874.88;;;10.56;54.38
8398;BME280;4236;54.504;9.588;2023-04-06T08:36:14;101878.69;;;10.62;55.00
8398;BME280;4236;54.504;9.588;2023-04-06T08:38:44;101885.34;;;10.74;55.15
8398;BME280;4236;54.504;9.588;2023-04-06T08:41:13;101872.31;;;10.87;54.62
8398;BME280;4236;54.504;9.588;2023-04-06T08:43:43;101879.19;;;10.49;53.56
8398;BME280;4236;54.504;9.588;2023-04-06T08:46:11;101873.19;;;10.55;52.99
8398;BME280;4236;54.504;9.588;2023-04-06T08:48:40;101876.69;;;10.55;52.70
8398;BME280;4236;54.504;9.588;2023-04-06T08:51:09;101870.16;;;10.74;52.83
8398;BME280;4236;54.504;9.588;2023-04-06T08:53:39;101871.34;;;10.55;51.29
8398;BME280;4236;54.504;9.588;2023-04-06T08:56:09;101866.50;;;10.67;49.79
8398;BME280;4236;54.504;9.588;2023-04-06T08:58:39;101869.59;;;10.95;50.84
8398;BME280;4236;54.504;9.588;2023-04-06T09:01:08;101878.25;;;10.97;50.88
8398;BME280;4236;54.504;9.588;2023-04-06T09:03:39;101874.94;;;10.95;49.79
8398;BME280;4236;54.504;9.588;2023-04-06T09:06:08;101873.59;;;10.91;49.45
8398;BME280;4236;54.504;9.588;2023-04-06T09:08:39;101868.72;;;11.10;49.12
8398;BME280;4236;54.504;9.588;2023-04-06T09:11:09;101865.88;;;11.12;49.04
8398;BME280;4236;54.504;9.588;2023-04-06T09:13:47;101869.13;;;11.30;48.83
8398;BME280;4236;54.504;9.588;2023-04-06T09:16:16;101865.72;;;11.14;47.73
8398;BME280;4236;54.504;9.588;2023-04-06T09:18:44;101857.56;;;11.07;47.15
8398;BME280;4236;54.504;9.588;2023-04-06T09:21:12;101870.50;;;11.18;47.77
8398;BME280;4236;54.504;9.588;2023-04-06T09:23:41;101867.53;;;11.13;47.38
8398;BME280;4236;54.504;9.588;2023-04-06T09:26:10;101863.69;;;11.16;46.87
8398;BME280;4236;54.504;9.588;2023-04-06T09:28:45;101854.94;;;11.30;47.11
8398;BME280;4236;54.504;9.588;2023-04-06T09:31:15;101856.72;;;11.45;46.51
8398;BME280;4236;54.504;9.588;2023-04-06T09:33:45;101864.66;;;11.53;44.61
8398;BME280;4236;54.504;9.588;2023-04-06T09:36:13;101854.59;;;11.33;44.08
8398;BME280;4236;54.504;9.588;2023-04-06T09:38:55;101853.19;;;11.45;44.31
8398;BME280;4236;54.504;9.588;2023-04-06T09:41:24;101844.91;;;11.62;45.67
8398;BME280;4236;54.504;9.588;2023-04-06T09:43:52;101842.38;;;11.38;44.46
8398;BME280;4236;54.504;9.588;2023-04-06T09:46:30;101849.75;;;11.36;43.72
8398;BME280;4236;54.504;9.588;2023-04-06T09:49:17;101848.31;;;11.26;45.06
8398;BME280;4236;54.504;9.588;2023-04-06T09:51:48;101850.03;;;11.10;44.18
8398;BME280;4236;54.504;9.588;2023-04-06T09:54:21;101845.28;;;11.29;45.26
8398;BME280;4236;54.504;9.588;2023-04-06T09:56:51;101844.13;;;11.23;44.39
8398;BME280;4236;54.504;9.588;2023-04-06T09:59:28;101847.81;;;11.22;42.75
8398;BME280;4236;54.504;9.588;2023-04-06T10:01:59;101845.69;;;11.48;44.25
8398;BME280;4236;54.504;9.588;2023-04-06T10:04:34;101837.31;;;11.82;43.88
8398;BME280;4236;54.504;9.588;2023-04-06T10:07:05;101839.78;;;11.84;42.07
8398;BME280;4236;54.504;9.588;2023-04-06T10:09:36;101841.31;;;12.01;44.01
8398;BME280;4236;54.504;9.588;2023-04-06T10:12:05;101840.75;;;12.28;43.45
8398;BME280;4236;54.504;9.588;2023-04-06T10:14:34;101836.38;;;12.35;43.18
8398;BME280;4236;54.504;9.588;2023-04-06T10:17:04;101836.66;;;12.55;42.63
8398;BME280;4236;54.504;9.588;2023-04-06T10:19:38;101824.69;;;12.13;41.30
8398;BME280;4236;54.504;9.588;2023-04-06T10:22:08;101832.63;;;12.21;42.08
8398;BME280;4236;54.504;9.588;2023-04-06T10:24:39;101832.97;;;12.41;41.35
8398;BME280;4236;54.504;9.588;2023-04-06T10:27:07;101833.50;;;12.37;41.16
8398;BME280;4236;54.504;9.588;2023-04-06T10:29:44;101822.22;;;12.12;40.30
8398;BME280;4236;54.504;9.588;2023-04-06T10:32:13;101829.38;;;11.89;40.16
8398;BME280;4236;54.504;9.588;2023-04-06T10:34:41;101826.97;;;11.79;39.45
8398;BME280;4236;54.504;9.588;2023-04-06T10:37:16;101831.78;;;11.84;40.81
8398;BME280;4236;54.504;9.588;2023-04-06T10:39:47;101826.50;;;11.76;41.46
8398;BME280;4236;54.504;9.588;2023-04-06T10:42:15;101829.28;;;12.05;41.36
8398;BME280;4236;54.504;9.588;2023-04-06T10:44:43;101828.63;;;11.80;39.18
8398;BME280;4236;54.504;9.588;2023-04-06T10:47:18;101820.16;;;11.68;39.03
8398;BME280;4236;54.504;9.588;2023-04-06T10:49:46;101822.19;;;11.66;39.51
8398;BME280;4236;54.504;9.588;2023-04-06T10:52:14;101826.91;;;11.87;40.41
8398;BME280;4236;54.504;9.588;2023-04-06T10:54:43;101814.53;;;12.09;40.13
8398;BME280;4236;54.504;9.588;2023-04-06T10:57:15;101813.94;;;11.99;40.00
8398;BME280;4236;54.504;9.588;2023-04-06T10:59:43;101821.56;;;11.87;38.31
8398;BME280;4236;54.504;9.588;2023-04-06T11:02:19;101822.94;;;12.06;38.72
8398;BME280;4236;54.504;9.588;2023-04-06T11:04:54;101814.94;;;11.98;38.28
8398;BME280;4236;54.504;9.588;2023-04-06T11:07:23;101804.00;;;12.07;37.93
8398;BME280;4236;54.504;9.588;2023-04-06T11:09:51;101810.59;;;12.19;38.44
8398;BME280;4236;54.504;9.588;2023-04-06T11:12:39;101805.63;;;12.31;38.00
8398;BME280;4236;54.504;9.588;2023-04-06T11:15:08;101806.56;;;12.24;37.02
8398;BME280;4236;54.504;9.588;2023-04-06T11:17:36;101809.59;;;12.20;37.75
8398;BME280;4236;54.504;9.588;2023-04-06T11:20:10;101804.56;;;12.03;37.10
8398;BME280;4236;54.504;9.588;2023-04-06T11:22:48;101797.31;;;12.11;36.60
8398;BME280;4236;54.504;9.588;2023-04-06T11:25:16;101800.03;;;12.41;37.40
8398;BME280;4236;54.504;9.588;2023-04-06T11:27:46;101804.19;;;12.43;37.58
8398;BME280;4236;54.504;9.588;2023-04-06T11:30:14;101800.03;;;12.55;36.83
8398;BME280;4236;54.504;9.588;2023-04-06T11:32:43;101804.38;;;12.56;37.11
8398;BME280;4236;54.504;9.588;2023-04-06T11:35:19;101795.88;;;12.67;37.48
8398;BME280;4236;54.504;9.588;2023-04-06T11:37:48;101796.19;;;12.87;38.15
8398;BME280;4236;54.504;9.588;2023-04-06T11:40:20;101803.09;;;13.11;37.79
8398;BME280;4236;54.504;9.588;2023-04-06T11:42:53;101794.00;;;13.26;37.62
8398;BME280;4236;54.504;9.588;2023-04-06T11:45:22;101793.56;;;13.08;37.60
8398;BME280;4236;54.504;9.588;2023-04-06T11:47:55;101786.25;;;13.02;36.70
8398;BME280;4236;54.504;9.588;2023-04-06T11:50:24;101786.38;;;13.09;37.04
8398;BME280;4236;54.504;9.588;2023-04-06T11:52:59;101787.16;;;13.24;36.83
8398;BME280;4236;54.504;9.588;2023-04-06T11:55:27;101792.41;;;13.32;37.43
8398;BME280;4236;54.504;9.588;2023-04-06T11:58:00;101786.53;;;13.07;37.00
8398;BME280;4236;54.504;9.588;2023-04-06T12:00:28;101779.00;;;13.32;38.20
8398;BME280;4236;54.504;9.588;2023-04-06T12:03:00;101780.22;;;13.29;36.31
8398;BME280;4236;54.504;9.588;2023-04-06T12:05:28;101788.84;;;13.25;36.65
8398;BME280;4236;54.504;9.588;2023-04-06T12:07:56;101783.41;;;13.18;36.49
8398;BME280;4236;54.504;9.588;2023-04-06T12:10:28;101779.47;;;13.36;38.18
8398;BME280;4236;54.504;9.588;2023-04-06T12:12:56;101773.56;;;13.40;36.53
8398;BME280;4236;54.504;9.588;2023-04-06T12:15:25;101776.75;;;13.50;36.79
8398;BME280;4236;54.504;9.588;2023-04-06T12:17:53;101768.69;;;13.50;36.05
8398;BME280;4236;54.504;9.588;2023-04-06T12:20:21;101767.22;;;13.26;35.97
8398;BME280;4236;54.504;9.588;2023-04-06T12:22:53;101780.31;;;13.36;36.54
8398;BME280;4236;54.504;9.588;2023-04-06T12:25:20;101766.78;;;13.44;36.49
8398;BME280;4236;54.504;9.588;2023-04-06T12:27:48;101766.34;;;13.41;36.81
8398;BME280;4236;54.504;9.588;2023-04-06T12:30:16;101768.28;;;13.11;36.49
8398;BME280;4236;54.504;9.588;2023-04-06T12:32:45;101760.84;;;13.27;36.37
8398;BME280;4236;54.504;9.588;2023-04-06T12:35:16;101752.03;;;13.34;36.51
8398;BME280;4236;54.504;9.588;2023-04-06T12:37:44;101752.81;;;13.49;36.44
8398;BME280;4236;54.504;9.588;2023-04-06T12:40:12;101753.97;;;13.61;35.91
8398;BME280;4236;54.504;9.588;2023-04-06T12:42:41;101743.19;;;13.75;36.01
8398;BME280;4236;54.504;9.588;2023-04-06T12:45:10;101755.88;;;13.67;36.26
8398;BME280;4236;54.504;9.588;2023-04-06T12:47:38;101756.13;;;13.72;36.22
8398;BME280;4236;54.504;9.588;2023-04-06T12:50:07;101751.66;;;13.79;35.77
8398;BME280;4236;54.504;9.588;2023-04-06T12:52:35;101747.16;;;13.79;35.71
8398;BME280;4236;54.504;9.588;2023-04-06T12:55:04;101751.06;;;13.83;36.03
8398;BME280;4236;54.504;9.588;2023-04-06T12:57:32;101754.66;;;13.91;36.48
8398;BME280;4236;54.504;9.588;2023-04-06T13:00:00;101747.84;;;13.88;36.69
8398;BME280;4236;54.504;9.588;2023-04-06T13:02:28;101746.19;;;14.15;36.61
8398;BME280;4236;54.504;9.588;2023-04-06T13:04:57;101739.00;;;14.22;36.54
8398;BME280;4236;54.504;9.588;2023-04-06T13:07:27;101730.31;;;14.20;35.23
8398;BME280;4236;54.504;9.588;2023-04-06T13:09:55;101730.59;;;14.04;36.23
8398;BME280;4236;54.504;9.588;2023-04-06T13:12:23;101734.28;;;13.96;37.02
8398;BME280;4236;54.504;9.588;2023-04-06T13:14:51;101733.69;;;13.73;36.04
8398;BME280;4236;54.504;9.588;2023-04-06T13:17:19;101729.75;;;13.97;37.00